Time;durP1;ratioP1;P1;durP2;ratioP2;P2;SDS_P1;SDS_P2;PMS_P1;PMS_P2;Temp;Humidity;BMP_temperature;BMP_pressure;BME280_temperature;BME280_humidity;BME280_pressure;Samples;Min_cycle;Max_cycle;Signal;HPM_P1;HPM_P2
2022/03/28 00:00:48;;;;;;;29.05;18.52;;;6.70;99.90;;;;;;2074681;28;20060;-73
2022/03/28 00:01:49;;;;;;;32.20;18.15;;;6.70;99.90;;;;;;2074357;28;20069;-73
2022/03/28 00:02:49;;;;;;;28.58;17.60;;;6.70;99.90;;;;;;2074208;28;20033;-73
2022/03/28 00:03:50;;;;;;;28.55;18.08;;;6.70;99.90;;;;;;2074892;28;20500;-72
2022/03/28 00:04:51;;;;;;;29.17;17.25;;;6.70;99.90;;;;;;2074212;28;20563;-73
2022/03/28 00:05:51;;;;;;;27.05;16.70;;;6.70;99.90;;;;;;2074289;28;20524;-72
2022/03/28 00:06:52;;;;;;;28.67;17.65;;;6.70;99.90;;;;;;2074918;28;20026;-72
2022/03/28 00:07:52;;;;;;;28.45;17.92;;;6.70;99.90;;;;;;2074251;28;20032;-73
2022/03/28 00:08:53;;;;;;;28.00;17.40;;;6.70;99.90;;;;;;2074315;28;20028;-72
2022/03/28 00:09:54;;;;;;;27.38;16.83;;;6.60;99.90;;;;;;2074838;28;20025;-72
2022/03/28 00:10:55;;;;;;;26.63;16.70;;;6.60;99.90;;;;;;2074515;28;20026;-73
2022/03/28 00:11:55;;;;;;;24.92;16.73;;;6.70;99.90;;;;;;2074846;28;20037;-73
2022/03/28 00:12:56;;;;;;;25.83;16.90;;;6.60;99.90;;;;;;2074982;28;20022;-73
2022/03/28 00:13:57;;;;;;;27.85;17.45;;;6.60;99.90;;;;;;2074655;28;20026;-73
2022/03/28 00:14:57;;;;;;;29.00;17.92;;;6.60;99.90;;;;;;2074816;28;20025;-73
2022/03/28 00:15:58;;;;;;;31.15;17.52;;;6.60;99.90;;;;;;2074976;28;20080;-73
2022/03/28 00:16:58;;;;;;;29.48;17.52;;;6.60;99.90;;;;;;2074939;28;20570;-74
2022/03/28 00:17:59;;;;;;;29.35;17.70;;;6.60;99.90;;;;;;2074799;28;20109;-73
2022/03/28 00:19:00;;;;;;;29.67;18.17;;;6.60;99.90;;;;;;2074321;28;20036;-73
2022/03/28 00:20:01;;;;;;;29.25;17.70;;;6.60;99.90;;;;;;2074102;28;20420;-73
2022/03/28 00:21:01;;;;;;;26.77;17.00;;;6.60;99.90;;;;;;2074644;28;20029;-73
2022/03/28 00:22:02;;;;;;;30.08;17.63;;;6.60;99.90;;;;;;2074188;28;20030;-73
2022/03/28 00:23:03;;;;;;;29.33;17.65;;;6.60;99.90;;;;;;2074120;28;20029;-75
2022/03/28 00:24:04;;;;;;;28.35;17.13;;;6.60;99.90;;;;;;2073842;28;20026;-73
2022/03/28 00:25:06;;;;;;;29.05;17.52;;;6.60;99.90;;;;;;2066058;28;20027;-74
2022/03/28 00:26:07;;;;;;;28.13;17.67;;;6.60;99.90;;;;;;2074260;28;20033;-74
2022/03/28 00:27:08;;;;;;;27.88;16.95;;;6.50;99.90;;;;;;2074941;28;20377;-73
2022/03/28 00:28:08;;;;;;;26.90;17.23;;;6.50;99.90;;;;;;2074852;28;20026;-75
2022/03/28 00:29:09;;;;;;;29.10;17.17;;;6.50;99.90;;;;;;2074169;28;20026;-74
2022/03/28 00:30:10;;;;;;;24.98;16.88;;;6.50;99.90;;;;;;2074086;28;20583;-73
2022/03/28 00:31:11;;;;;;;26.02;16.98;;;6.50;99.90;;;;;;2066162;28;20049;-74
2022/03/28 00:32:12;;;;;;;24.63;16.27;;;6.50;99.90;;;;;;2074355;28;20044;-74
2022/03/28 00:33:13;;;;;;;26.13;17.08;;;6.50;99.90;;;;;;2075002;28;20638;-74
2022/03/28 00:34:15;;;;;;;25.88;16.77;;;6.50;99.90;;;;;;2074943;28;20025;-73
2022/03/28 00:35:17;;;;;;;27.45;17.23;;;6.50;99.90;;;;;;2075006;28;20029;-73
2022/03/28 00:36:17;;;;;;;25.05;16.80;;;6.50;99.90;;;;;;2074833;28;20041;-73
2022/03/28 00:37:18;;;;;;;25.13;17.25;;;6.50;99.90;;;;;;2072445;28;20392;-72
2022/03/28 00:38:19;;;;;;;23.52;16.25;;;6.50;99.90;;;;;;2073093;28;20120;-72
2022/03/28 00:39:20;;;;;;;24.35;16.45;;;6.50;99.90;;;;;;2073708;28;20105;-73
2022/03/28 00:40:22;;;;;;;22.95;16.02;;;6.50;99.90;;;;;;2072658;28;20449;-72
2022/03/28 00:41:23;;;;;;;24.73;16.75;;;6.50;99.90;;;;;;2072942;28;20081;-71
2022/03/28 00:42:24;;;;;;;24.55;16.50;;;6.50;99.90;;;;;;2074010;28;20080;-71
2022/03/28 00:43:26;;;;;;;24.90;16.35;;;6.50;99.90;;;;;;2073760;28;20025;-72
2022/03/28 00:44:29;;;;;;;23.98;15.90;;;6.40;99.90;;;;;;2074537;28;20025;-72
2022/03/28 00:45:31;;;;;;;23.98;16.13;;;6.40;99.90;;;;;;2073871;28;20409;-72
2022/03/28 00:46:33;;;;;;;24.52;15.60;;;6.40;99.90;;;;;;2066401;28;20034;-72
2022/03/28 00:47:33;;;;;;;24.00;16.15;;;6.40;99.90;;;;;;2074254;28;20026;-71
2022/03/28 00:48:34;;;;;;;22.70;15.75;;;6.40;99.90;;;;;;2074739;28;20549;-72
2022/03/28 00:49:35;;;;;;;22.83;15.98;;;6.40;99.90;;;;;;2073838;28;20436;-71
2022/03/28 00:50:37;;;;;;;23.45;16.48;;;6.40;99.90;;;;;;2065007;28;20027;-72
2022/03/28 00:51:38;;;;;;;23.75;16.02;;;6.40;99.90;;;;;;2073124;28;20050;-72
2022/03/28 00:52:39;;;;;;;26.25;17.17;;;6.40;99.90;;;;;;2073237;28;20124;-70
2022/03/28 00:53:40;;;;;;;24.20;16.45;;;6.40;99.90;;;;;;2073983;28;20053;-72
2022/03/28 00:54:41;;;;;;;23.58;16.52;;;6.40;99.90;;;;;;2073629;28;20029;-72
2022/03/28 00:55:42;;;;;;;22.35;15.73;;;6.30;99.90;;;;;;2072971;28;20108;-72
2022/03/28 00:56:45;;;;;;;23.90;16.17;;;6.30;99.90;;;;;;2073193;28;20029;-71
2022/03/28 00:57:46;;;;;;;23.13;16.27;;;6.30;99.90;;;;;;2073729;28;20481;-72
2022/03/28 00:58:47;;;;;;;23.88;16.42;;;6.20;99.90;;;;;;2073468;28;20053;-71
2022/03/28 00:59:47;;;;;;;26.38;16.98;;;6.30;99.90;;;;;;2073430;28;20526;-71
2022/03/28 01:00:48;;;;;;;24.75;16.85;;;6.20;99.90;;;;;;2072581;28;20040;-72
2022/03/28 01:01:49;;;;;;;23.83;16.35;;;6.20;99.90;;;;;;2073071;28;20121;-72
2022/03/28 01:02:50;;;;;;;22.27;15.48;;;6.30;99.90;;;;;;2072863;28;20125;-71
2022/03/28 01:03:50;;;;;;;22.55;16.15;;;6.20;99.90;;;;;;2072701;28;20029;-72
2022/03/28 01:04:51;;;;;;;23.08;16.15;;;6.20;99.90;;;;;;2073341;28;20026;-71
2022/03/28 01:05:52;;;;;;;22.88;15.70;;;6.20;99.90;;;;;;2072671;28;20072;-72
2022/03/28 01:06:53;;;;;;;27.02;16.15;;;6.20;99.90;;;;;;2072921;28;20030;-72
2022/03/28 01:07:55;;;;;;;23.08;16.30;;;6.20;99.90;;;;;;2072921;28;20115;-73
2022/03/28 01:08:56;;;;;;;22.42;15.88;;;6.20;99.90;;;;;;2073080;28;20022;-69
2022/03/28 01:09:59;;;;;;;23.58;15.90;;;6.20;99.90;;;;;;2073257;28;20045;-70
2022/03/28 01:11:06;;;;;;;22.25;15.45;;;6.20;99.90;;;;;;2072929;28;20021;-70
2022/03/28 01:12:08;;;;;;;23.38;15.50;;;6.20;99.90;;;;;;2073426;28;20057;-68
2022/03/28 01:13:09;;;;;;;23.67;15.65;;;6.20;99.90;;;;;;2073615;28;20084;-68
2022/03/28 01:14:10;;;;;;;24.10;15.73;;;6.10;99.90;;;;;;2073373;28;20122;-69
2022/03/28 01:15:13;;;;;;;23.17;15.48;;;6.10;99.90;;;;;;2072994;28;20092;-68
2022/03/28 01:16:14;;;;;;;22.00;15.27;;;6.10;99.90;;;;;;2072740;28;20025;-69
2022/03/28 01:18:35;;;;;;;22.33;15.50;;;6.10;99.90;;;;;;2073377;28;20057;-68
2022/03/28 01:19:35;;;;;;;23.75;15.88;;;6.10;99.90;;;;;;2072973;28;20408;-69
2022/03/28 01:20:39;;;;;;;21.02;15.10;;;6.10;99.90;;;;;;2073301;28;20052;-71
2022/03/28 01:21:40;;;;;;;22.13;14.27;;;6.10;99.90;;;;;;2072931;28;20099;-71
2022/03/28 01:22:41;;;;;;;20.52;14.55;;;6.00;99.90;;;;;;2073270;28;20068;-70
2022/03/28 01:23:42;;;;;;;22.45;15.30;;;6.00;99.90;;;;;;2073305;28;20030;-72
2022/03/28 01:24:44;;;;;;;23.55;15.93;;;6.00;99.90;;;;;;2073021;28;20091;-73
2022/03/28 01:25:51;;;;;;;22.60;15.27;;;6.00;99.90;;;;;;2073312;28;20465;-74
2022/03/28 01:26:53;;;;;;;21.13;15.10;;;6.00;99.90;;;;;;2073142;28;20065;-73
2022/03/28 01:27:54;;;;;;;23.23;15.10;;;6.00;99.90;;;;;;2073292;28;20033;-73
2022/03/28 01:28:54;;;;;;;22.98;15.45;;;6.00;99.90;;;;;;2072789;28;20022;-73
2022/03/28 01:29:55;;;;;;;20.95;14.75;;;6.00;99.90;;;;;;2072671;28;20108;-72
2022/03/28 01:30:56;;;;;;;23.95;15.40;;;6.00;99.90;;;;;;2072420;28;20041;-71
2022/03/28 01:31:56;;;;;;;24.02;15.80;;;6.00;99.90;;;;;;2072693;28;20018;-72
2022/03/28 01:32:59;;;;;;;22.05;15.15;;;6.00;99.90;;;;;;2072725;28;20041;-74
2022/03/28 01:34:01;;;;;;;22.50;15.57;;;6.00;99.90;;;;;;2073220;28;20083;-72
2022/03/28 01:35:01;;;;;;;24.10;15.18;;;6.00;99.90;;;;;;2073162;28;20033;-73
2022/03/28 01:36:02;;;;;;;20.05;14.32;;;5.90;99.90;;;;;;2072631;28;20021;-71
2022/03/28 01:37:03;;;;;;;20.45;13.85;;;5.90;99.90;;;;;;2072647;28;20026;-73
2022/03/28 01:38:11;;;;;;;20.45;14.05;;;5.90;99.90;;;;;;2072562;28;20052;-72
2022/03/28 01:39:15;;;;;;;20.25;14.07;;;5.90;99.90;;;;;;2072392;28;20400;-73
2022/03/28 01:40:16;;;;;;;23.15;14.70;;;5.90;99.90;;;;;;2064511;28;20044;-72
2022/03/28 01:41:16;;;;;;;21.77;14.55;;;5.90;99.90;;;;;;2072297;28;20088;-71
2022/03/28 01:42:17;;;;;;;23.63;14.73;;;5.90;99.90;;;;;;2073138;28;20037;-71
2022/03/28 01:43:19;;;;;;;21.80;14.50;;;5.90;99.90;;;;;;2072397;28;20029;-72
2022/03/28 01:44:19;;;;;;;21.35;14.57;;;5.80;99.90;;;;;;2072361;28;20030;-71
2022/03/28 01:45:20;;;;;;;21.63;14.95;;;5.90;99.90;;;;;;2072327;28;20045;-74
2022/03/28 01:46:21;;;;;;;23.95;15.82;;;5.90;99.90;;;;;;2072499;28;20034;-71
2022/03/28 01:47:21;;;;;;;21.80;14.75;;;5.90;99.90;;;;;;2072442;28;20148;-73
2022/03/28 01:48:25;;;;;;;21.40;14.68;;;5.90;99.90;;;;;;2063815;28;20027;-71
2022/03/28 01:49:26;;;;;;;23.20;15.00;;;5.90;99.90;;;;;;2064033;28;20043;-72
2022/03/28 01:50:27;;;;;;;22.63;15.05;;;5.80;99.90;;;;;;2072312;28;20034;-70
2022/03/28 01:51:27;;;;;;;22.70;14.93;;;5.80;99.90;;;;;;2072790;28;20022;-72
2022/03/28 01:52:28;;;;;;;23.80;15.10;;;5.80;99.90;;;;;;2072542;28;20398;-72
2022/03/28 01:53:29;;;;;;;23.83;15.32;;;5.80;99.90;;;;;;2072361;28;20057;-71
2022/03/28 01:54:29;;;;;;;22.63;14.82;;;5.80;99.90;;;;;;2072428;28;20040;-71
2022/03/28 01:55:30;;;;;;;22.63;15.25;;;5.80;99.90;;;;;;2072412;28;20022;-72
2022/03/28 01:56:34;;;;;;;23.08;15.77;;;5.80;99.90;;;;;;2072865;28;20163;-71
2022/03/28 01:57:39;;;;;;;23.52;15.38;;;5.80;99.90;;;;;;2072562;28;20057;-72
2022/03/28 01:58:40;;;;;;;21.40;14.38;;;5.80;99.90;;;;;;2072542;28;20040;-71
2022/03/28 01:59:40;;;;;;;21.77;14.90;;;5.80;99.90;;;;;;2072996;28;20037;-73
2022/03/28 02:00:41;;;;;;;21.02;14.82;;;5.70;99.90;;;;;;2072985;28;20080;-71
2022/03/28 02:01:42;;;;;;;21.80;14.93;;;5.70;99.90;;;;;;2072646;28;20160;-71
2022/03/28 02:02:44;;;;;;;22.63;14.57;;;5.80;99.90;;;;;;2073293;28;20489;-73
2022/03/28 02:03:44;;;;;;;23.00;14.70;;;5.80;99.90;;;;;;2073088;28;20033;-73
2022/03/28 02:04:45;;;;;;;21.02;14.73;;;5.70;99.90;;;;;;2073116;28;20029;-72
2022/03/28 02:05:45;;;;;;;21.80;14.32;;;5.70;99.90;;;;;;2073185;28;20030;-71
2022/03/28 02:06:46;;;;;;;23.55;14.48;;;5.70;99.90;;;;;;2073928;28;20473;-72
2022/03/28 02:07:48;;;;;;;23.35;15.27;;;5.70;99.90;;;;;;2074034;28;20025;-73
2022/03/28 02:08:49;;;;;;;23.08;15.40;;;5.70;99.90;;;;;;2073542;28;20504;-72
2022/03/28 02:09:49;;;;;;;22.27;14.80;;;5.70;99.90;;;;;;2073999;28;20034;-71
2022/03/28 02:10:50;;;;;;;23.60;14.52;;;5.70;99.90;;;;;;2074369;28;20026;-73
2022/03/28 02:11:50;;;;;;;22.50;14.48;;;5.70;99.90;;;;;;2074218;28;20034;-73
2022/03/28 02:12:52;;;;;;;22.67;14.68;;;5.70;99.90;;;;;;2074472;28;20029;-72
2022/03/28 02:13:53;;;;;;;19.77;14.27;;;5.60;99.90;;;;;;2074723;28;20054;-72
2022/03/28 02:14:53;;;;;;;20.05;14.02;;;5.60;99.90;;;;;;2074586;28;20074;-72
2022/03/28 02:15:54;;;;;;;19.50;13.52;;;5.60;99.90;;;;;;2074678;28;20040;-73
2022/03/28 02:16:54;;;;;;;21.65;14.38;;;5.60;99.90;;;;;;2074202;28;20038;-71
2022/03/28 02:17:55;;;;;;;23.17;14.40;;;5.60;99.90;;;;;;2074604;28;20133;-72
2022/03/28 02:18:57;;;;;;;21.33;14.63;;;5.60;99.90;;;;;;2065924;28;20100;-72
2022/03/28 02:19:58;;;;;;;22.98;14.52;;;5.60;99.90;;;;;;2065562;28;20069;-71
2022/03/28 02:20:59;;;;;;;22.38;14.38;;;5.50;99.90;;;;;;2074416;28;20038;-72
2022/03/28 02:21:59;;;;;;;23.17;14.25;;;5.60;99.90;;;;;;2074249;28;20036;-73
2022/03/28 02:23:00;;;;;;;20.23;14.02;;;5.60;99.90;;;;;;2073240;28;20533;-72
2022/03/28 02:24:01;;;;;;;21.73;14.23;;;5.50;99.90;;;;;;2072648;28;20034;-72
2022/03/28 02:25:03;;;;;;;19.17;13.75;;;5.50;99.90;;;;;;2073179;28;20030;-72
2022/03/28 02:26:04;;;;;;;20.10;13.38;;;5.50;99.90;;;;;;2073897;28;20527;-72
2022/03/28 02:27:04;;;;;;;18.20;12.80;;;5.50;99.90;;;;;;2073278;28;20030;-73
2022/03/28 02:28:06;;;;;;;20.63;13.88;;;5.50;99.90;;;;;;2065382;28;20014;-73
2022/03/28 02:29:06;;;;;;;20.10;13.27;;;5.50;99.90;;;;;;2073624;28;20048;-74
2022/03/28 02:30:08;;;;;;;18.88;13.30;;;5.50;99.90;;;;;;2074227;28;20041;-73
2022/03/28 02:31:12;;;;;;;21.45;14.15;;;5.50;99.90;;;;;;2073493;28;20401;-73
2022/03/28 02:32:13;;;;;;;18.80;13.70;;;5.50;99.90;;;;;;2074062;28;20034;-73
2022/03/28 02:33:14;;;;;;;20.45;13.52;;;5.50;99.90;;;;;;2074178;28;20026;-74
2022/03/28 02:34:14;;;;;;;21.40;14.57;;;5.50;99.90;;;;;;2074539;28;20049;-72
2022/03/28 02:35:15;;;;;;;21.60;14.02;;;5.40;99.90;;;;;;2074558;28;20057;-72
2022/03/28 02:36:16;;;;;;;21.70;14.75;;;5.40;99.90;;;;;;2074541;28;20340;-72
2022/03/28 02:37:17;;;;;;;21.90;14.05;;;5.40;99.90;;;;;;2074274;28;20101;-72
2022/03/28 02:38:18;;;;;;;21.83;15.18;;;5.40;99.90;;;;;;2074184;28;20101;-72
2022/03/28 02:39:18;;;;;;;22.23;14.40;;;5.40;99.90;;;;;;2073266;28;20030;-71
2022/03/28 02:40:19;;;;;;;21.95;14.45;;;5.40;99.90;;;;;;2074081;28;20466;-71
2022/03/28 02:41:19;;;;;;;21.08;13.93;;;5.40;99.90;;;;;;2073947;28;20041;-71
2022/03/28 02:42:22;;;;;;;21.38;14.23;;;5.40;99.90;;;;;;2073996;28;20030;-68
2022/03/28 02:43:23;;;;;;;22.63;14.18;;;5.40;99.90;;;;;;2073572;28;20025;-71
2022/03/28 02:44:23;;;;;;;20.50;13.60;;;5.40;99.90;;;;;;2072944;28;20108;-71
2022/03/28 02:45:25;;;;;;;21.77;14.43;;;5.40;99.90;;;;;;2072908;28;20033;-71
2022/03/28 02:46:26;;;;;;;20.33;13.75;;;5.40;99.90;;;;;;2072174;28;20034;-71
2022/03/28 02:47:26;;;;;;;19.80;13.52;;;5.40;99.90;;;;;;2072103;28;20201;-70
2022/03/28 02:48:27;;;;;;;19.63;13.88;;;5.30;99.90;;;;;;2073204;28;20109;-71
2022/03/28 02:49:27;;;;;;;20.30;13.65;;;5.40;99.90;;;;;;2073078;28;20057;-71
2022/03/28 02:50:30;;;;;;;20.23;13.38;;;5.40;99.90;;;;;;2072131;28;20649;-73
2022/03/28 02:51:31;;;;;;;20.58;13.23;;;5.30;99.90;;;;;;2064308;28;20029;-73
2022/03/28 02:52:32;;;;;;;21.88;14.45;;;5.30;99.90;;;;;;2064292;28;20553;-73
2022/03/28 02:53:32;;;;;;;20.25;13.48;;;5.30;99.90;;;;;;2072420;28;20028;-73
2022/03/28 02:54:33;;;;;;;20.15;13.13;;;5.30;99.90;;;;;;2072562;28;20038;-72
2022/03/28 02:55:34;;;;;;;22.63;14.50;;;5.30;99.90;;;;;;2072634;28;20033;-73
2022/03/28 02:56:34;;;;;;;21.25;13.95;;;5.30;99.90;;;;;;2072992;28;20026;-73
2022/03/28 02:57:36;;;;;;;20.77;13.57;;;5.30;99.90;;;;;;2072037;28;20091;-72
2022/03/28 02:58:37;;;;;;;21.58;13.90;;;5.30;99.90;;;;;;2072132;28;20056;-72
2022/03/28 02:59:38;;;;;;;21.38;14.40;;;5.30;99.90;;;;;;2072510;28;20072;-72
2022/03/28 03:00:38;;;;;;;20.83;13.73;;;5.30;99.90;;;;;;2073830;28;20065;-72
2022/03/28 03:01:39;;;;;;;21.92;13.98;;;5.30;99.90;;;;;;2072304;28;20405;-72
2022/03/28 03:02:42;;;;;;;22.15;14.25;;;5.20;99.90;;;;;;2072103;28;20397;-73
2022/03/28 03:03:42;;;;;;;24.10;15.10;;;5.20;99.90;;;;;;2072245;28;20034;-71
2022/03/28 03:04:43;;;;;;;22.98;14.93;;;5.20;99.90;;;;;;2072463;28;20076;-70
2022/03/28 03:05:43;;;;;;;24.50;15.18;;;5.20;99.90;;;;;;2072505;28;20029;-71
2022/03/28 03:06:44;;;;;;;25.55;15.18;;;5.20;99.90;;;;;;2072771;28;20037;-70
2022/03/28 03:07:51;;;;;;;25.33;15.18;;;5.20;99.90;;;;;;2072943;28;20032;-70
2022/03/28 03:08:52;;;;;;;25.02;14.98;;;5.20;99.90;;;;;;2072503;28;20085;-73
2022/03/28 03:09:53;;;;;;;24.58;15.32;;;5.20;99.90;;;;;;2071918;28;20033;-70
2022/03/28 03:10:54;;;;;;;24.00;15.35;;;5.10;99.90;;;;;;2071691;28;20021;-71
2022/03/28 03:11:54;;;;;;;24.95;15.27;;;5.10;99.90;;;;;;2071945;28;20108;-69
2022/03/28 03:12:55;;;;;;;25.83;15.35;;;5.10;99.90;;;;;;2071726;28;20037;-69
2022/03/28 03:13:56;;;;;;;24.98;15.45;;;5.10;99.90;;;;;;2071845;28;20026;-70
2022/03/28 03:14:57;;;;;;;23.80;15.38;;;5.10;99.90;;;;;;2072250;28;20113;-70
2022/03/28 03:15:59;;;;;;;23.88;14.68;;;5.10;99.90;;;;;;2072431;28;20088;-72
2022/03/28 03:16:59;;;;;;;24.13;15.30;;;5.10;99.90;;;;;;2072510;28;20017;-69
2022/03/28 03:18:00;;;;;;;22.90;15.35;;;5.10;99.90;;;;;;2071891;28;20049;-71
2022/03/28 03:19:00;;;;;;;24.42;15.52;;;5.10;99.90;;;;;;2071807;28;20046;-70
2022/03/28 03:20:02;;;;;;;25.73;16.05;;;5.10;99.90;;;;;;2072285;28;20160;-71
2022/03/28 03:21:03;;;;;;;31.42;16.95;;;5.10;99.90;;;;;;2072135;28;20521;-71
2022/03/28 03:22:04;;;;;;;25.98;15.55;;;5.00;99.90;;;;;;2071789;28;20093;-71
2022/03/28 03:23:05;;;;;;;25.13;15.75;;;5.10;99.90;;;;;;2071544;28;20528;-70
2022/03/28 03:24:05;;;;;;;26.85;15.27;;;5.10;99.90;;;;;;2072368;28;20125;-70
2022/03/28 03:25:06;;;;;;;25.75;15.77;;;5.00;99.90;;;;;;2072289;28;20052;-71
2022/03/28 03:26:07;;;;;;;26.58;15.90;;;5.00;99.90;;;;;;2072357;28;20034;-70
2022/03/28 03:27:09;;;;;;;25.63;15.50;;;5.00;99.90;;;;;;2072232;28;20048;-71
2022/03/28 03:28:09;;;;;;;26.48;16.45;;;5.00;99.90;;;;;;2071836;28;20014;-70
2022/03/28 03:29:11;;;;;;;24.83;15.07;;;5.00;99.90;;;;;;2071763;28;20036;-70
2022/03/28 03:30:12;;;;;;;24.95;15.40;;;5.00;99.90;;;;;;2063412;28;20034;-70
2022/03/28 03:31:12;;;;;;;24.42;15.02;;;5.00;99.90;;;;;;2063186;28;20026;-70
2022/03/28 03:32:13;;;;;;;23.27;14.90;;;5.00;99.90;;;;;;2071892;28;20026;-70
2022/03/28 03:33:14;;;;;;;23.77;14.93;;;5.00;99.90;;;;;;2072698;28;20034;-70
2022/03/28 03:34:15;;;;;;;23.08;14.82;;;5.00;99.90;;;;;;2072463;28;20034;-70
2022/03/28 03:35:16;;;;;;;24.13;14.82;;;5.00;99.90;;;;;;2072551;28;20030;-69
2022/03/28 03:36:17;;;;;;;22.58;14.77;;;5.00;99.90;;;;;;2072442;28;20030;-71
2022/03/28 03:37:17;;;;;;;22.65;14.93;;;5.00;99.90;;;;;;2072779;28;20481;-70
2022/03/28 03:38:18;;;;;;;23.20;15.20;;;5.00;99.90;;;;;;2073192;28;20030;-70
2022/03/28 03:39:18;;;;;;;22.60;15.55;;;4.90;99.90;;;;;;2072446;28;20484;-70
2022/03/28 03:40:19;;;;;;;24.23;15.20;;;4.90;99.90;;;;;;2072100;28;20108;-74
2022/03/28 03:41:20;;;;;;;22.52;15.30;;;4.90;99.90;;;;;;2072212;28;20029;-70
2022/03/28 03:42:20;;;;;;;25.95;15.93;;;4.90;99.90;;;;;;2072479;28;20037;-71
2022/03/28 03:43:22;;;;;;;23.48;15.23;;;4.90;99.90;;;;;;2072314;28;20030;-71
2022/03/28 03:44:22;;;;;;;23.60;15.70;;;4.90;99.90;;;;;;2072678;28;20030;-71
2022/03/28 03:45:23;;;;;;;23.38;15.02;;;4.90;99.90;;;;;;2073809;28;20339;-71
2022/03/28 03:46:24;;;;;;;22.85;15.38;;;4.90;99.90;;;;;;2073981;28;20030;-71
2022/03/28 03:47:24;;;;;;;24.25;15.18;;;4.90;99.90;;;;;;2072070;28;20064;-71
2022/03/28 03:48:27;;;;;;;22.25;14.90;;;4.90;99.90;;;;;;2071964;28;20030;-72
2022/03/28 03:49:27;;;;;;;23.30;15.15;;;4.90;99.90;;;;;;2072257;28;20386;-71
2022/03/28 03:50:28;;;;;;;22.60;15.40;;;4.80;99.90;;;;;;2072036;28;20037;-70
2022/03/28 03:51:28;;;;;;;22.27;15.05;;;4.80;99.90;;;;;;2071976;28;20037;-71
2022/03/28 03:52:29;;;;;;;23.55;15.18;;;4.80;99.90;;;;;;2072149;28;20026;-71
2022/03/28 03:53:29;;;;;;;23.80;15.45;;;4.80;99.90;;;;;;2072182;28;20037;-72
2022/03/28 03:54:31;;;;;;;22.60;15.18;;;4.80;99.90;;;;;;2072048;28;20492;-70
2022/03/28 03:55:32;;;;;;;23.20;15.13;;;4.80;99.90;;;;;;2072116;28;20029;-70
2022/03/28 03:56:33;;;;;;;21.02;15.00;;;4.80;99.90;;;;;;2071440;28;20117;-71
2022/03/28 03:57:34;;;;;;;21.27;14.27;;;4.80;99.90;;;;;;2071661;28;20033;-69
2022/03/28 03:58:35;;;;;;;24.10;15.13;;;4.80;99.90;;;;;;2071634;28;20493;-69
2022/03/28 03:59:36;;;;;;;22.20;15.05;;;4.80;99.90;;;;;;2071578;28;20025;-69
2022/03/28 04:00:37;;;;;;;21.25;14.55;;;4.80;99.90;;;;;;2071549;28;20540;-69
2022/03/28 04:01:37;;;;;;;23.38;15.43;;;4.80;99.90;;;;;;2063316;28;20457;-71
2022/03/28 04:02:39;;;;;;;21.88;15.27;;;4.80;99.90;;;;;;2071597;28;20121;-70
2022/03/28 04:03:39;;;;;;;21.48;14.63;;;4.80;99.90;;;;;;2072225;28;20032;-71
2022/03/28 04:04:40;;;;;;;22.55;15.38;;;4.80;99.90;;;;;;2072074;28;20034;-70
2022/03/28 04:05:40;;;;;;;22.00;15.32;;;4.80;99.90;;;;;;2072106;28;20053;-70
2022/03/28 04:06:41;;;;;;;21.30;15.05;;;4.70;99.90;;;;;;2071451;28;20029;-69
2022/03/28 04:07:42;;;;;;;24.92;15.80;;;4.70;99.90;;;;;;2071562;28;20073;-71
2022/03/28 04:08:42;;;;;;;24.17;15.18;;;4.70;99.90;;;;;;2072310;28;20093;-70
2022/03/28 04:09:43;;;;;;;22.70;14.77;;;4.70;99.90;;;;;;2072060;28;20682;-69
2022/03/28 04:10:44;;;;;;;21.23;14.93;;;4.70;99.90;;;;;;2072040;28;20105;-70
2022/03/28 04:11:45;;;;;;;22.88;15.20;;;4.70;99.90;;;;;;2072053;28;20060;-71
2022/03/28 04:12:45;;;;;;;23.38;15.63;;;4.70;99.90;;;;;;2073764;28;20096;-70
2022/03/28 04:13:46;;;;;;;22.60;15.32;;;4.70;99.90;;;;;;2073931;28;20026;-71
2022/03/28 04:14:46;;;;;;;22.48;15.52;;;4.70;99.90;;;;;;2073050;28;20612;-70
2022/03/28 04:15:48;;;;;;;23.67;15.75;;;4.60;99.90;;;;;;2073382;28;20427;-70
2022/03/28 04:16:48;;;;;;;23.65;16.08;;;4.60;99.90;;;;;;2073306;28;20023;-71
2022/03/28 04:17:49;;;;;;;24.15;15.95;;;4.60;99.90;;;;;;2073947;28;20469;-70
2022/03/28 04:18:50;;;;;;;25.65;16.00;;;4.60;99.90;;;;;;2073665;28;20034;-70
2022/03/28 04:19:51;;;;;;;23.48;15.40;;;4.60;99.90;;;;;;2074050;28;20488;-70
2022/03/28 04:20:52;;;;;;;23.25;15.57;;;4.60;99.90;;;;;;2073566;28;20378;-70
2022/03/28 04:21:53;;;;;;;23.48;15.60;;;4.60;99.90;;;;;;2073868;28;20034;-70
2022/03/28 04:22:53;;;;;;;21.92;15.27;;;4.60;99.90;;;;;;2073934;28;20026;-69
2022/03/28 04:23:54;;;;;;;22.92;15.50;;;4.60;99.90;;;;;;2073964;28;20038;-70
2022/03/28 04:24:54;;;;;;;25.25;16.08;;;4.50;99.90;;;;;;2073872;28;20022;-70
2022/03/28 04:25:55;;;;;;;25.58;15.65;;;4.50;99.90;;;;;;2073884;28;20041;-70
2022/03/28 04:26:56;;;;;;;22.77;14.82;;;4.50;99.90;;;;;;2073224;28;20018;-70
2022/03/28 04:27:57;;;;;;;21.30;14.93;;;4.50;99.90;;;;;;2073287;28;20121;-71
2022/03/28 04:28:58;;;;;;;23.08;14.77;;;4.50;99.90;;;;;;2073788;28;20021;-70
2022/03/28 04:29:58;;;;;;;23.98;15.50;;;4.50;99.90;;;;;;2073567;28;20026;-71
2022/03/28 04:30:59;;;;;;;24.33;15.65;;;4.50;99.90;;;;;;2073062;28;20022;-70
2022/03/28 04:31:59;;;;;;;22.58;15.00;;;4.50;99.90;;;;;;2073307;28;20505;-70
2022/03/28 04:33:00;;;;;;;23.70;15.60;;;4.50;99.90;;;;;;2073306;28;20123;-70
2022/03/28 04:34:01;;;;;;;23.25;15.32;;;4.50;99.90;;;;;;2073992;28;20049;-71
2022/03/28 04:35:03;;;;;;;23.83;15.55;;;4.50;99.90;;;;;;2073185;28;20034;-70
2022/03/28 04:36:04;;;;;;;21.58;15.13;;;4.50;99.90;;;;;;2073541;28;20049;-70
2022/03/28 04:37:04;;;;;;;24.70;15.73;;;4.50;99.90;;;;;;2074480;28;20653;-70
2022/03/28 04:38:06;;;;;;;25.88;17.08;;;4.50;99.90;;;;;;2073594;28;20036;-70
2022/03/28 04:39:07;;;;;;;23.20;16.02;;;4.50;99.90;;;;;;2073647;28;20032;-70
2022/03/28 04:40:11;;;;;;;24.23;15.80;;;4.50;99.90;;;;;;2073127;28;20397;-70
2022/03/28 04:41:11;;;;;;;23.92;16.15;;;4.40;99.90;;;;;;2065121;28;20030;-69
2022/03/28 04:42:12;;;;;;;25.55;16.40;;;4.40;99.90;;;;;;2073411;28;20442;-71
2022/03/28 04:43:13;;;;;;;26.10;16.10;;;4.40;99.90;;;;;;2074132;28;20066;-70
2022/03/28 04:44:13;;;;;;;23.90;15.90;;;4.40;99.90;;;;;;2074175;28;20029;-71
2022/03/28 04:45:14;;;;;;;24.60;16.30;;;4.40;99.90;;;;;;2073832;28;20025;-70
2022/03/28 04:46:15;;;;;;;25.55;15.82;;;4.40;99.90;;;;;;2074195;28;20026;-72
2022/03/28 04:47:16;;;;;;;25.85;16.50;;;4.40;99.90;;;;;;2074034;28;20034;-69
2022/03/28 04:48:16;;;;;;;25.63;17.13;;;4.40;99.90;;;;;;2074293;28;20466;-71
2022/03/28 04:49:17;;;;;;;29.10;16.67;;;4.40;99.90;;;;;;2065580;28;20034;-71
2022/03/28 04:50:18;;;;;;;23.90;16.33;;;4.40;99.90;;;;;;2073326;28;20032;-71
2022/03/28 04:51:19;;;;;;;26.50;17.30;;;4.40;99.90;;;;;;2073809;28;20469;-71
2022/03/28 04:52:19;;;;;;;25.35;16.27;;;4.40;99.90;;;;;;2073881;28;20030;-73
2022/03/28 04:53:20;;;;;;;27.08;16.52;;;4.40;99.90;;;;;;2073498;28;20026;-69
2022/03/28 04:54:21;;;;;;;25.77;16.67;;;4.40;99.90;;;;;;2073835;28;20081;-71
2022/03/28 04:55:22;;;;;;;27.10;16.50;;;4.40;99.90;;;;;;2073782;28;20392;-70
2022/03/28 04:56:22;;;;;;;27.02;17.13;;;4.40;99.90;;;;;;2073128;28;20175;-71
2022/03/28 04:57:23;;;;;;;27.23;17.27;;;4.40;99.90;;;;;;2074079;28;20444;-70
2022/03/28 04:58:24;;;;;;;26.80;17.27;;;4.40;99.90;;;;;;2074558;28;20505;-71
2022/03/28 04:59:24;;;;;;;28.42;17.23;;;4.40;99.90;;;;;;2074857;28;20025;-70
2022/03/28 05:00:25;;;;;;;26.13;16.50;;;4.40;99.90;;;;;;2074268;28;20033;-70
2022/03/28 05:01:26;;;;;;;27.42;17.20;;;4.40;99.90;;;;;;2067061;28;20097;-70
2022/03/28 05:02:27;;;;;;;27.08;17.42;;;4.40;99.90;;;;;;2075603;28;20088;-72
2022/03/28 05:03:27;;;;;;;27.45;17.85;;;4.40;99.90;;;;;;2075330;28;20034;-71
2022/03/28 05:04:28;;;;;;;26.70;17.20;;;4.40;99.90;;;;;;2074653;28;20581;-71
2022/03/28 05:05:29;;;;;;;25.45;17.33;;;4.40;99.90;;;;;;2073627;28;20492;-72
2022/03/28 05:06:29;;;;;;;26.77;17.27;;;4.40;99.90;;;;;;2073395;28;20022;-73
2022/03/28 05:07:30;;;;;;;26.45;17.63;;;4.40;99.90;;;;;;2073374;28;20029;-70
2022/03/28 05:08:31;;;;;;;26.83;18.50;;;4.50;99.90;;;;;;2072788;28;20073;-71
2022/03/28 05:09:32;;;;;;;25.65;17.33;;;4.50;99.90;;;;;;2072866;28;20014;-72
2022/03/28 05:10:33;;;;;;;27.75;17.98;;;4.50;99.90;;;;;;2064716;28;20113;-73
2022/03/28 05:11:34;;;;;;;26.23;17.77;;;4.60;99.90;;;;;;2072651;28;20084;-72
2022/03/28 05:12:34;;;;;;;28.45;18.00;;;4.50;99.90;;;;;;2073666;28;20070;-71
2022/03/28 05:13:35;;;;;;;25.92;17.05;;;4.60;99.90;;;;;;2072947;28;20026;-72
2022/03/28 05:14:36;;;;;;;28.25;18.10;;;4.60;99.90;;;;;;2073519;28;20037;-73